Time;durP1;ratioP1;P1;durP2;ratioP2;P2;SDS_P1;SDS_P2;PMS_P1;PMS_P2;Temp;Humidity;BMP_temperature;BMP_pressure;BME280_temperature;BME280_humidity;BME280_pressure;Samples;Min_cycle;Max_cycle;Signal;HPM_P1;HPM_P2
2022/06/18 00:02:01;;;;;;;;;12.60;12.60;;;;;;;;5291774;27;8774;-71
2022/06/18 00:04:32;;;;;;;;;14.80;14.80;;;;;;;;5291554;27;9532;-70
2022/06/18 00:07:05;;;;;;;;;32.20;31.20;;;;;;;;5254620;28;9583;-71
2022/06/18 00:09:41;;;;;;;;;27.60;27.60;;;;;;;;5271464;28;8778;-70
2022/06/18 00:15:11;;;;;;;;;9.80;9.80;;;;;;;;5270487;28;8871;-71
2022/06/18 00:17:43;;;;;;;;;13.60;13.60;;;;;;;;5253211;28;8793;-71
2022/06/18 00:20:14;;;;;;;;;9.80;9.80;;;;;;;;5253397;28;8855;-71
2022/06/18 00:23:07;;;;;;;;;11.00;11.00;;;;;;;;5288606;28;8770;-71
2022/06/18 00:25:39;;;;;;;;;13.40;13.40;;;;;;;;5269010;27;8810;-69
2022/06/18 00:28:15;;;;;;;;;8.75;8.75;;;;;;;;5291129;27;8799;-69
2022/06/18 00:30:46;;;;;;;;;11.00;11.00;;;;;;;;5291321;27;8968;-70
2022/06/18 00:33:18;;;;;;;;;10.25;10.25;;;;;;;;5290928;27;8795;-70
2022/06/18 00:35:50;;;;;;;;;11.00;11.00;;;;;;;;5291060;27;8772;-70
2022/06/18 00:38:24;;;;;;;;;16.60;16.60;;;;;;;;5290979;27;8787;-70
2022/06/18 00:40:57;;;;;;;;;22.00;21.20;;;;;;;;5273879;27;8760;-70
2022/06/18 00:43:48;;;;;;;;;9.40;9.40;;;;;;;;5289470;27;8938;-70
2022/06/18 00:46:19;;;;;;;;;11.00;11.00;;;;;;;;5270421;28;8789;-70
2022/06/18 00:49:11;;;;;;;;;7.75;7.75;;;;;;;;5269709;28;8758;-70
2022/06/18 00:52:08;;;;;;;;;7.75;7.75;;;;;;;;5287656;28;8922;-70
2022/06/18 00:54:43;;;;;;;;;8.25;8.25;;;;;;;;5253441;28;9496;-71
2022/06/18 00:57:18;;;;;;;;;7.75;7.75;;;;;;;;5270685;28;8802;-69
2022/06/18 01:00:13;;;;;;;;;6.00;6.00;;;;;;;;5270043;28;8792;-69
2022/06/18 01:02:46;;;;;;;;;3.00;3.00;;;;;;;;5244921;28;8858;-69
2022/06/18 01:05:17;;;;;;;;;5.00;5.00;;;;;;;;5271909;27;8791;-69
2022/06/18 01:07:51;;;;;;;;;6.75;6.75;;;;;;;;5288792;27;8822;-70
2022/06/18 01:10:26;;;;;;;;;9.00;9.00;;;;;;;;5257079;27;8787;-69
2022/06/18 01:13:23;;;;;;;;;12.00;12.00;;;;;;;;5308844;27;8764;-69
2022/06/18 01:16:16;;;;;;;;;8.00;8.00;;;;;;;;5290530;27;8787;-70
2022/06/18 01:18:49;;;;;;;;;8.50;8.50;;;;;;;;5271755;27;8823;-71
2022/06/18 01:21:32;;;;;;;;;9.25;9.25;;;;;;;;5290629;27;8767;-71
2022/06/18 01:24:11;;;;;;;;;14.20;14.20;;;;;;;;5278267;28;8782;-70
2022/06/18 01:26:45;;;;;;;;;15.40;15.40;;;;;;;;5273415;28;8789;-71
2022/06/18 01:29:17;;;;;;;;;9.00;9.00;;;;;;;;5256324;28;8770;-71
2022/06/18 01:31:49;;;;;;;;;12.80;12.60;;;;;;;;5291151;28;8753;-71
2022/06/18 01:34:20;;;;;;;;;6.50;6.50;;;;;;;;5273387;28;8904;-71
2022/06/18 01:37:10;;;;;;;;;9.00;9.00;;;;;;;;5276109;28;8801;-70
2022/06/18 01:39:45;;;;;;;;;18.00;18.00;;;;;;;;5253848;28;8800;-70
2022/06/18 01:42:54;;;;;;;;;16.40;16.40;;;;;;;;5263886;27;8801;-69
2022/06/18 01:45:29;;;;;;;;;11.25;11.25;;;;;;;;5294172;27;8779;-69
2022/06/18 01:48:29;;;;;;;;;13.20;13.20;;;;;;;;5276978;27;8787;-70
2022/06/18 01:51:33;;;;;;;;;13.00;13.00;;;;;;;;5291318;27;8856;-70
2022/06/18 01:54:07;;;;;;;;;17.20;16.80;;;;;;;;5312307;27;8780;-71
2022/06/18 01:56:41;;;;;;;;;11.00;11.00;;;;;;;;5291703;27;8776;-71
2022/06/18 01:59:35;;;;;;;;;14.00;14.00;;;;;;;;5277510;27;8815;-71
2022/06/18 02:02:25;;;;;;;;;11.60;11.60;;;;;;;;5287980;28;8793;-71
2022/06/18 02:04:56;;;;;;;;;11.50;11.50;;;;;;;;5256653;27;9609;-71
2022/06/18 02:07:27;;;;;;;;;12.50;12.50;;;;;;;;5272601;28;9486;-68
2022/06/18 02:10:01;;;;;;;;;13.00;13.00;;;;;;;;5272631;28;8778;-68
2022/06/18 02:12:36;;;;;;;;;9.00;9.00;;;;;;;;5272934;28;11055;-69
2022/06/18 02:15:12;;;;;;;;;8.00;8.00;;;;;;;;5272264;28;8778;-69
2022/06/18 02:17:44;;;;;;;;;10.00;10.00;;;;;;;;5271703;28;8862;-69
2022/06/18 02:20:19;;;;;;;;;16.25;15.75;;;;;;;;5296054;27;8772;-69
2022/06/18 02:23:09;;;;;;;;;27.80;25.40;;;;;;;;5273810;28;9525;-69
2022/06/18 02:25:41;;;;;;;;;14.50;14.50;;;;;;;;5271882;28;8766;-68
2022/06/18 02:28:27;;;;;;;;;9.75;9.25;;;;;;;;5290284;28;8864;-69
2022/06/18 02:30:59;;;;;;;;;9.75;9.75;;;;;;;;5255427;28;8758;-67
2022/06/18 02:33:32;;;;;;;;;10.00;10.00;;;;;;;;5272021;28;8770;-67
2022/06/18 02:36:12;;;;;;;;;14.25;14.25;;;;;;;;5290839;27;8884;-68
2022/06/18 02:38:45;;;;;;;;;13.50;13.50;;;;;;;;5252661;28;8825;-68
2022/06/18 02:41:21;;;;;;;;;27.60;27.00;;;;;;;;5271646;28;8794;-69
2022/06/18 02:43:52;;;;;;;;;23.40;22.60;;;;;;;;5271902;28;8792;-69
2022/06/18 02:46:42;;;;;;;;;24.60;24.60;;;;;;;;5289824;28;8792;-69
2022/06/18 02:49:14;;;;;;;;;23.20;23.20;;;;;;;;5289556;28;8785;-69
2022/06/18 02:51:46;;;;;;;;;18.20;18.20;;;;;;;;5254903;28;9487;-69
2022/06/18 02:54:18;;;;;;;;;17.40;17.20;;;;;;;;5272067;27;8885;-69
2022/06/18 02:56:50;;;;;;;;;16.50;16.00;;;;;;;;5290459;27;8764;-69
2022/06/18 02:59:21;;;;;;;;;16.00;16.00;;;;;;;;5292583;27;8756;-69
2022/06/18 03:01:52;;;;;;;;;14.25;14.25;;;;;;;;5287634;27;8764;-68
2022/06/18 03:04:24;;;;;;;;;13.00;13.00;;;;;;;;5267996;28;8782;-69
2022/06/18 03:06:59;;;;;;;;;13.00;13.00;;;;;;;;5270905;28;9548;-70
2022/06/18 03:12:41;;;;;;;;;11.75;11.75;;;;;;;;5271087;28;8817;-69
2022/06/18 03:15:12;;;;;;;;;14.00;14.00;;;;;;;;5270866;28;8778;-67
2022/06/18 03:18:02;;;;;;;;;11.50;11.50;;;;;;;;5277827;27;8815;-70
2022/06/18 03:20:45;;;;;;;;;10.25;10.25;;;;;;;;5292307;27;9502;-70
2022/06/18 03:23:17;;;;;;;;;12.25;12.25;;;;;;;;5273747;28;9532;-69
2022/06/18 03:25:49;;;;;;;;;14.75;14.75;;;;;;;;5253746;28;8940;-69
2022/06/18 03:28:21;;;;;;;;;6.00;6.00;;;;;;;;5287655;28;8808;-72
2022/06/18 03:30:55;;;;;;;;;5.00;5.00;;;;;;;;5270776;28;8793;-71
2022/06/18 03:33:26;;;;;;;;;3.75;3.75;;;;;;;;5288722;28;8782;-71
2022/06/18 03:36:00;;;;;;;;;2.75;2.75;;;;;;;;5237647;27;8793;-72
2022/06/18 03:38:32;;;;;;;;;2.75;2.75;;;;;;;;5253356;28;9663;-71
2022/06/18 03:41:04;;;;;;;;;2.50;2.50;;;;;;;;5272903;27;8908;-71
2022/06/18 03:43:36;;;;;;;;;5.25;5.25;;;;;;;;5274616;27;9470;-69
2022/06/18 03:46:08;;;;;;;;;1.50;1.50;;;;;;;;5291744;27;8764;-72
2022/06/18 03:48:54;;;;;;;;;4.00;4.00;;;;;;;;5299634;27;9496;-72
2022/06/18 03:51:30;;;;;;;;;3.00;3.00;;;;;;;;5286860;28;8786;-71
2022/06/18 03:54:01;;;;;;;;;2.50;2.50;;;;;;;;5294109;27;8769;-71
2022/06/18 03:56:34;;;;;;;;;4.00;4.00;;;;;;;;5268415;28;8786;-72
2022/06/18 03:59:09;;;;;;;;;3.25;3.00;;;;;;;;5266858;28;8814;-71
2022/06/18 04:01:41;;;;;;;;;3.00;3.00;;;;;;;;5267413;28;8778;-72
2022/06/18 04:04:14;;;;;;;;;17.00;17.00;;;;;;;;5233890;28;8792;-73
2022/06/18 04:06:50;;;;;;;;;4.00;4.00;;;;;;;;5267595;28;8862;-73
2022/06/18 04:09:43;;;;;;;;;6.00;6.00;;;;;;;;5282524;28;8778;-74
2022/06/18 04:12:18;;;;;;;;;5.75;5.75;;;;;;;;5250085;28;8848;-70
2022/06/18 04:15:09;;;;;;;;;6.00;6.00;;;;;;;;5285950;27;8855;-71
2022/06/18 04:17:59;;;;;;;;;3.75;3.75;;;;;;;;5286837;28;8836;-70
2022/06/18 04:20:33;;;;;;;;;5.50;5.50;;;;;;;;5276030;27;8827;-72
2022/06/18 04:23:07;;;;;;;;;5.50;5.50;;;;;;;;5289376;27;9554;-72
2022/06/18 04:25:43;;;;;;;;;4.50;4.50;;;;;;;;5290194;27;8791;-69
2022/06/18 04:28:15;;;;;;;;;4.00;4.00;;;;;;;;5291042;27;8790;-71
2022/06/18 04:30:53;;;;;;;;;3.25;3.25;;;;;;;;5258703;27;8763;-72
2022/06/18 04:33:30;;;;;;;;;3.00;3.00;;;;;;;;5275599;27;8768;-70
2022/06/18 04:36:19;;;;;;;;;4.75;4.75;;;;;;;;5277093;27;8760;-69
2022/06/18 04:38:50;;;;;;;;;4.00;4.00;;;;;;;;5301941;27;8811;-69
2022/06/18 04:41:39;;;;;;;;;4.00;4.00;;;;;;;;5270496;28;8813;-68
2022/06/18 04:44:23;;;;;;;;;4.00;4.00;;;;;;;;5288387;28;8773;-68
2022/06/18 04:47:03;;;;;;;;;4.50;4.25;;;;;;;;5270067;28;8784;-68
2022/06/18 04:49:35;;;;;;;;;5.50;5.50;;;;;;;;5270166;28;8797;-68
2022/06/18 04:52:06;;;;;;;;;5.00;5.00;;;;;;;;5270183;28;8746;-68
2022/06/18 04:54:43;;;;;;;;;5.00;5.00;;;;;;;;5269879;28;9531;-67
2022/06/18 04:57:14;;;;;;;;;5.00;5.00;;;;;;;;5249712;28;8787;-68
2022/06/18 04:59:47;;;;;;;;;3.50;3.50;;;;;;;;5266972;28;8800;-68
2022/06/18 05:02:22;;;;;;;;;6.00;6.00;;;;;;;;5228954;28;8768;-68
2022/06/18 05:05:20;;;;;;;;;6.00;6.00;;;;;;;;5222127;28;8784;-67
2022/06/18 05:08:07;;;;;;;;;5.00;5.00;;;;;;;;5238188;28;8910;-69
2022/06/18 05:11:01;;;;;;;;;5.25;5.25;;;;;;;;5264896;28;8858;-68
2022/06/18 05:13:58;;;;;;;;;5.00;5.00;;;;;;;;5290682;27;8869;-67
2022/06/18 05:16:35;;;;;;;;;6.00;6.00;;;;;;;;5303449;27;8789;-68
2022/06/18 05:19:09;;;;;;;;;5.25;5.25;;;;;;;;5273499;28;8829;-67
2022/06/18 05:21:40;;;;;;;;;6.25;6.25;;;;;;;;5273407;28;9543;-68
2022/06/18 05:24:11;;;;;;;;;5.50;5.50;;;;;;;;5273323;28;8774;-67
2022/06/18 05:26:45;;;;;;;;;7.50;7.50;;;;;;;;5256529;28;8774;-68
2022/06/18 05:29:22;;;;;;;;;8.50;7.75;;;;;;;;5273884;28;9488;-70
2022/06/18 05:32:03;;;;;;;;;6.00;6.00;;;;;;;;5285319;27;8768;-68
2022/06/18 05:34:40;;;;;;;;;7.00;7.00;;;;;;;;5262169;28;8788;-67
2022/06/18 05:37:15;;;;;;;;;8.00;8.00;;;;;;;;5256104;28;8792;-68
2022/06/18 05:39:46;;;;;;;;;9.00;9.00;;;;;;;;5251778;28;8800;-68
2022/06/18 05:42:19;;;;;;;;;7.25;7.25;;;;;;;;5268637;28;8792;-67
2022/06/18 05:44:50;;;;;;;;;6.33;6.33;;;;;;;;5251994;28;8778;-68
2022/06/18 05:47:22;;;;;;;;;9.00;9.00;;;;;;;;5251943;28;8922;-68
2022/06/18 05:49:57;;;;;;;;;7.00;7.00;;;;;;;;5268557;28;8782;-68
2022/06/18 05:52:31;;;;;;;;;5.50;5.50;;;;;;;;5285844;28;8816;-69
2022/06/18 05:55:11;;;;;;;;;8.00;8.00;;;;;;;;5285891;28;8796;-68
2022/06/18 05:57:54;;;;;;;;;6.25;6.25;;;;;;;;5251745;28;8811;-68
2022/06/18 06:00:44;;;;;;;;;6.00;6.00;;;;;;;;5252506;28;8828;-67
2022/06/18 06:03:15;;;;;;;;;5.50;5.50;;;;;;;;5251889;28;8768;-68
2022/06/18 06:05:46;;;;;;;;;4.75;4.75;;;;;;;;5251776;28;8923;-68
2022/06/18 06:08:36;;;;;;;;;6.50;6.00;;;;;;;;5251550;28;8912;-68
2022/06/18 06:14:18;;;;;;;;;5.75;5.75;;;;;;;;5269632;28;8756;-66
2022/06/18 06:16:50;;;;;;;;;6.50;6.50;;;;;;;;5251467;28;8922;-67
2022/06/18 06:19:20;;;;;;;;;6.25;6.00;;;;;;;;5235395;28;8822;-68
2022/06/18 06:21:51;;;;;;;;;6.00;6.00;;;;;;;;5270377;28;9495;-68
2022/06/18 06:24:22;;;;;;;;;6.33;6.33;;;;;;;;5252677;28;11304;-68
2022/06/18 06:27:11;;;;;;;;;9.25;9.25;;;;;;;;5270752;28;8784;-68
2022/06/18 06:30:01;;;;;;;;;10.00;10.00;;;;;;;;5251364;28;8768;-68
2022/06/18 06:32:33;;;;;;;;;8.25;8.25;;;;;;;;5251234;28;8784;-68
2022/06/18 06:35:05;;;;;;;;;5.25;5.25;;;;;;;;5234353;28;8791;-67
2022/06/18 06:37:36;;;;;;;;;7.00;7.00;;;;;;;;5250908;28;8875;-66
2022/06/18 06:40:08;;;;;;;;;7.50;7.50;;;;;;;;5250984;28;8788;-67
2022/06/18 06:42:40;;;;;;;;;6.00;6.00;;;;;;;;5269223;28;8780;-67
2022/06/18 06:45:12;;;;;;;;;6.25;6.25;;;;;;;;5269153;28;9485;-67
2022/06/18 06:47:44;;;;;;;;;7.00;7.00;;;;;;;;5250793;28;8837;-68
2022/06/18 06:50:16;;;;;;;;;7.00;7.00;;;;;;;;5268488;28;9532;-68
2022/06/18 06:52:50;;;;;;;;;5.00;5.00;;;;;;;;5250485;28;8776;-68
2022/06/18 06:58:14;;;;;;;;;3.00;3.00;;;;;;;;5268797;28;8826;-67
2022/06/18 07:00:55;;;;;;;;;5.25;5.25;;;;;;;;5250342;28;8768;-68
2022/06/18 07:03:28;;;;;;;;;3.00;3.00;;;;;;;;5251051;28;8853;-67
2022/06/18 07:06:01;;;;;;;;;4.00;4.00;;;;;;;;5250385;28;8772;-67
2022/06/18 07:08:32;;;;;;;;;4.25;4.25;;;;;;;;5250411;28;8783;-68
2022/06/18 07:11:03;;;;;;;;;5.00;5.00;;;;;;;;5250189;28;8752;-68
2022/06/18 07:13:34;;;;;;;;;5.33;5.33;;;;;;;;5283880;28;9483;-67
2022/06/18 07:16:05;;;;;;;;;4.50;3.75;;;;;;;;5268088;28;11274;-69
2022/06/18 07:18:36;;;;;;;;;5.00;5.00;;;;;;;;5249608;28;8812;-67
2022/06/18 07:21:12;;;;;;;;;4.00;4.00;;;;;;;;5266889;28;8923;-67
2022/06/18 07:23:43;;;;;;;;;5.00;5.00;;;;;;;;5283250;28;8841;-68
2022/06/18 07:26:16;;;;;;;;;7.00;7.00;;;;;;;;5266928;28;9478;-68
2022/06/18 07:28:48;;;;;;;;;6.00;6.00;;;;;;;;5283892;28;8774;-68
2022/06/18 07:31:27;;;;;;;;;5.50;5.50;;;;;;;;5250196;28;8865;-67
2022/06/18 07:33:58;;;;;;;;;5.00;5.00;;;;;;;;5249983;28;8764;-68
2022/06/18 07:36:32;;;;;;;;;5.75;5.75;;;;;;;;5249750;28;8792;-67
2022/06/18 07:39:06;;;;;;;;;3.75;3.75;;;;;;;;5283366;28;8955;-68
2022/06/18 07:41:56;;;;;;;;;5.25;5.25;;;;;;;;5235844;28;8771;-68
2022/06/18 07:44:27;;;;;;;;;5.00;5.00;;;;;;;;5249723;28;8790;-67
2022/06/18 07:47:07;;;;;;;;;5.00;5.00;;;;;;;;5283842;28;8760;-67
2022/06/18 07:49:38;;;;;;;;;4.25;4.25;;;;;;;;5249899;28;8768;-68
2022/06/18 07:52:10;;;;;;;;;4.00;4.00;;;;;;;;5249492;28;9603;-68
2022/06/18 07:54:42;;;;;;;;;4.00;4.00;;;;;;;;5232940;28;9237;-68
2022/06/18 07:57:13;;;;;;;;;4.00;4.00;;;;;;;;5249353;28;9567;-68
2022/06/18 07:59:44;;;;;;;;;4.75;4.75;;;;;;;;5267420;28;8768;-68
2022/06/18 08:02:16;;;;;;;;;5.75;5.75;;;;;;;;5249283;28;8768;-68
2022/06/18 08:05:06;;;;;;;;;4.75;4.75;;;;;;;;5281126;28;8874;-68
2022/06/18 08:07:38;;;;;;;;;4.75;4.75;;;;;;;;5266597;28;8918;-68
2022/06/18 08:10:10;;;;;;;;;6.00;6.00;;;;;;;;5267479;28;8764;-68
2022/06/18 08:12:59;;;;;;;;;4.75;4.75;;;;;;;;5249539;28;8923;-68
2022/06/18 08:15:31;;;;;;;;;5.00;5.00;;;;;;;;5266938;28;8792;-68
2022/06/18 08:18:02;;;;;;;;;5.75;5.75;;;;;;;;5266976;28;8820;-68
2022/06/18 08:20:34;;;;;;;;;3.33;3.33;;;;;;;;5267731;28;8829;-69
2022/06/18 08:23:06;;;;;;;;;2.75;2.75;;;;;;;;5267075;28;11340;-67
2022/06/18 08:25:39;;;;;;;;;3.50;3.50;;;;;;;;5249232;28;9597;-67
2022/06/18 08:28:11;;;;;;;;;2.50;2.50;;;;;;;;5249035;28;8776;-68
2022/06/18 08:30:42;;;;;;;;;3.25;3.25;;;;;;;;5232561;28;8763;-68
2022/06/18 08:33:13;;;;;;;;;3.50;3.50;;;;;;;;5249040;28;9463;-67
2022/06/18 08:36:05;;;;;;;;;3.75;3.75;;;;;;;;5253551;28;8756;-67
2022/06/18 08:38:37;;;;;;;;;2.00;2.00;;;;;;;;5219954;28;8856;-67
2022/06/18 08:41:08;;;;;;;;;7.00;7.00;;;;;;;;5253245;28;8752;-67
2022/06/18 08:43:54;;;;;;;;;2.00;2.00;;;;;;;;5253368;28;8792;-68
2022/06/18 08:46:44;;;;;;;;;2.75;2.75;;;;;;;;5236740;28;12134;-68
2022/06/18 08:49:21;;;;;;;;;12.00;12.00;;;;;;;;5271689;28;8829;-67
2022/06/18 08:51:55;;;;;;;;;9.25;9.25;;;;;;;;5236366;28;8775;-67
2022/06/18 08:54:44;;;;;;;;;4.25;4.25;;;;;;;;5236206;28;8790;-67
2022/06/18 08:57:15;;;;;;;;;3.50;3.50;;;;;;;;5270689;28;8910;-68
2022/06/18 08:59:46;;;;;;;;;3.00;3.00;;;;;;;;5271068;28;8859;-67
2022/06/18 09:02:22;;;;;;;;;2.00;2.00;;;;;;;;5270654;28;9597;-67
2022/06/18 09:05:01;;;;;;;;;2.00;2.00;;;;;;;;5236105;28;8882;-67
2022/06/18 09:08:02;;;;;;;;;3.00;3.00;;;;;;;;5266892;28;9521;-67
2022/06/18 09:11:04;;;;;;;;;4.25;4.25;;;;;;;;5270605;28;8813;-67
2022/06/18 09:13:39;;;;;;;;;2.00;2.00;;;;;;;;5235904;28;9783;-67
2022/06/18 09:16:12;;;;;;;;;3.00;3.00;;;;;;;;5270458;28;8810;-67
2022/06/18 09:19:03;;;;;;;;;2.00;2.00;;;;;;;;5238803;28;8885;-67
2022/06/18 09:21:34;;;;;;;;;4.25;4.25;;;;;;;;5252624;28;8752;-67
2022/06/18 09:24:42;;;;;;;;;2.25;2.25;;;;;;;;5270654;28;8741;-68
2022/06/18 09:27:22;;;;;;;;;0.75;0.75;;;;;;;;5270675;28;9627;-67
2022/06/18 09:30:04;;;;;;;;;3.50;3.50;;;;;;;;5252781;28;8906;-67
2022/06/18 09:32:43;;;;;;;;;3.00;3.00;;;;;;;;5252393;28;8799;-68
2022/06/18 09:35:18;;;;;;;;;12.00;11.75;;;;;;;;5252692;28;8764;-67
2022/06/18 09:38:10;;;;;;;;;6.00;6.00;;;;;;;;5270539;28;8826;-67
2022/06/18 09:40:45;;;;;;;;;7.75;7.75;;;;;;;;5251997;28;8800;-67
2022/06/18 09:43:36;;;;;;;;;8.00;8.00;;;;;;;;5270082;28;8795;-68
2022/06/18 09:46:09;;;;;;;;;1.00;1.00;;;;;;;;5234752;28;8757;-67
2022/06/18 09:48:42;;;;;;;;;7.00;7.00;;;;;;;;5268836;28;8791;-67
2022/06/18 09:51:29;;;;;;;;;5.00;5.00;;;;;;;;5270043;28;8748;-67
2022/06/18 09:54:03;;;;;;;;;3.50;3.50;;;;;;;;5286002;28;8826;-68
2022/06/18 09:56:36;;;;;;;;;2.50;2.50;;;;;;;;5251910;28;8752;-69
2022/06/18 09:59:13;;;;;;;;;3.00;3.00;;;;;;;;5252139;28;8792;-67
2022/06/18 10:02:14;;;;;;;;;3.00;3.00;;;;;;;;5269548;28;8760;-67
2022/06/18 10:07:53;;;;;;;;;3.75;3.75;;;;;;;;5269864;28;9525;-68
2022/06/18 10:10:46;;;;;;;;;3.25;3.25;;;;;;;;5269854;28;8779;-68
2022/06/18 10:13:40;;;;;;;;;6.00;6.00;;;;;;;;5269654;28;8795;-67
2022/06/18 10:16:32;;;;;;;;;8.75;8.00;;;;;;;;5269691;28;8775;-67
2022/06/18 10:19:21;;;;;;;;;3.25;3.25;;;;;;;;5269252;28;8792;-67
2022/06/18 10:22:27;;;;;;;;;2.33;2.33;;;;;;;;5251669;28;8778;-67
2022/06/18 10:25:01;;;;;;;;;2.50;2.50;;;;;;;;5225048;28;11451;-68
2022/06/18 10:27:41;;;;;;;;;3.00;3.00;;;;;;;;5245521;28;8779;-68
2022/06/18 10:30:21;;;;;;;;;2.00;2.00;;;;;;;;5269608;28;8752;-68
2022/06/18 10:32:59;;;;;;;;;4.00;4.00;;;;;;;;5251481;28;8772;-69
2022/06/18 10:35:29;;;;;;;;;3.00;3.00;;;;;;;;5285453;28;8756;-69
2022/06/18 10:38:14;;;;;;;;;4.00;4.00;;;;;;;;5251679;28;8897;-68
2022/06/18 10:40:48;;;;;;;;;4.00;4.00;;;;;;;;5251145;28;8802;-68
2022/06/18 10:43:23;;;;;;;;;9.75;9.75;;;;;;;;5234124;28;8778;-68
2022/06/18 10:46:06;;;;;;;;;3.25;3.25;;;;;;;;5234234;28;8855;-68
2022/06/18 10:48:37;;;;;;;;;0.00;0.00;;;;;;;;5267893;28;8798;-68
2022/06/18 10:51:14;;;;;;;;;2.00;2.00;;;;;;;;5251032;28;8802;-68
2022/06/18 10:53:50;;;;;;;;;1.75;1.75;;;;;;;;5268875;28;8830;-71
2022/06/18 10:56:23;;;;;;;;;3.50;3.50;;;;;;;;5234129;28;8783;-69
2022/06/18 10:58:55;;;;;;;;;4.25;4.25;;;;;;;;5283452;28;8799;-67
2022/06/18 11:01:30;;;;;;;;;2.75;2.50;;;;;;;;5250400;28;8760;-67
2022/06/18 11:04:25;;;;;;;;;0.75;0.75;;;;;;;;5236296;28;8780;-68
2022/06/18 11:07:02;;;;;;;;;1.00;1.00;;;;;;;;5233695;28;8768;-68
2022/06/18 11:09:50;;;;;;;;;1.50;1.50;;;;;;;;5217633;28;8833;-67
2022/06/18 11:12:27;;;;;;;;;1.00;1.00;;;;;;;;5233921;28;9473;-67
2022/06/18 11:14:58;;;;;;;;;2.50;2.50;;;;;;;;5266909;28;8768;-68
2022/06/18 11:17:31;;;;;;;;;1.75;1.75;;;;;;;;5284011;28;8790;-68
2022/06/18 11:20:17;;;;;;;;;2.50;2.50;;;;;;;;5283935;28;8788;-68
2022/06/18 11:22:53;;;;;;;;;3.25;3.25;;;;;;;;5233619;28;8760;-68
2022/06/18 11:25:26;;;;;;;;;0.00;0.00;;;;;;;;5233420;28;8910;-68
2022/06/18 11:27:58;;;;;;;;;1.00;1.00;;;;;;;;5250431;28;8772;-67
2022/06/18 11:30:32;;;;;;;;;8.00;8.00;;;;;;;;5283491;28;8798;-68
2022/06/18 11:33:37;;;;;;;;;5.50;5.50;;;;;;;;5252787;28;8764;-68
2022/06/18 11:36:16;;;;;;;;;14.50;14.50;;;;;;;;5268187;28;8811;-68
2022/06/18 11:38:52;;;;;;;;;3.00;3.00;;;;;;;;5266670;28;9542;-68
2022/06/18 11:41:35;;;;;;;;;1.25;1.25;;;;;;;;5233575;28;8760;-68
2022/06/18 11:44:17;;;;;;;;;2.75;2.75;;;;;;;;5249793;28;8796;-68
2022/06/18 11:47:11;;;;;;;;;4.25;4.25;;;;;;;;5249810;28;8783;-68
2022/06/18 11:49:50;;;;;;;;;3.25;3.25;;;;;;;;5246859;28;8790;-67
2022/06/18 11:52:46;;;;;;;;;3.00;3.00;;;;;;;;5281589;28;8756;-67
2022/06/18 11:55:29;;;;;;;;;6.00;6.00;;;;;;;;5249647;28;8772;-68
2022/06/18 11:58:06;;;;;;;;;4.50;4.50;;;;;;;;5249352;28;8816;-67
2022/06/18 12:00:43;;;;;;;;;2.25;2.25;;;;;;;;5249262;28;8804;-69
2022/06/18 12:03:33;;;;;;;;;2.75;2.75;;;;;;;;5250358;28;9525;-69
2022/06/18 12:06:11;;;;;;;;;4.00;4.00;;;;;;;;5267968;28;8790;-67
2022/06/18 12:08:42;;;;;;;;;2.00;2.00;;;;;;;;5249414;28;9474;-68
2022/06/18 12:11:25;;;;;;;;;3.25;3.25;;;;;;;;5249400;28;8799;-68
2022/06/18 12:14:08;;;;;;;;;4.00;4.00;;;;;;;;5232614;28;8784;-68
2022/06/18 12:16:49;;;;;;;;;2.25;2.25;;;;;;;;5232739;28;8787;-68
2022/06/18 12:19:20;;;;;;;;;2.00;1.75;;;;;;;;5249070;28;8871;-68
2022/06/18 12:21:57;;;;;;;;;1.00;1.00;;;;;;;;5267940;28;8799;-68
2022/06/18 12:24:28;;;;;;;;;1.00;1.00;;;;;;;;5283222;28;8776;-68
2022/06/18 12:27:06;;;;;;;;;1.33;1.33;;;;;;;;5267169;28;9659;-68
2022/06/18 12:30:11;;;;;;;;;9.25;9.25;;;;;;;;5267226;28;10018;-70
2022/06/18 12:32:50;;;;;;;;;3.25;3.25;;;;;;;;5267243;28;8829;-67
2022/06/18 12:35:37;;;;;;;;;2.00;2.00;;;;;;;;5249589;28;8800;-67
2022/06/18 12:38:24;;;;;;;;;9.25;9.00;;;;;;;;5282874;28;8796;-67
2022/06/18 12:40:55;;;;;;;;;2.75;2.75;;;;;;;;5232424;28;8757;-68
2022/06/18 12:43:32;;;;;;;;;1.33;1.33;;;;;;;;5266991;28;8772;-69
2022/06/18 12:46:32;;;;;;;;;1.75;1.75;;;;;;;;5280261;28;11367;-69
2022/06/18 12:49:14;;;;;;;;;3.50;3.50;;;;;;;;5249027;28;8868;-67
2022/06/18 12:51:49;;;;;;;;;7.00;7.00;;;;;;;;5249010;28;8796;-67
2022/06/18 12:54:40;;;;;;;;;7.00;7.00;;;;;;;;5265701;28;8772;-67
2022/06/18 12:57:19;;;;;;;;;5.00;5.00;;;;;;;;5249025;28;8771;-68
2022/06/18 12:59:53;;;;;;;;;4.00;4.00;;;;;;;;5232287;28;8934;-68
2022/06/18 13:02:57;;;;;;;;;7.50;7.50;;;;;;;;5282684;28;8782;-67
2022/06/18 13:05:47;;;;;;;;;2.00;2.00;;;;;;;;5250067;28;8780;-68
2022/06/18 13:08:39;;;;;;;;;1.75;1.75;;;;;;;;5265727;28;8764;-67
2022/06/18 13:11:17;;;;;;;;;1.00;1.00;;;;;;;;5260541;28;8813;-68
2022/06/18 13:13:51;;;;;;;;;2.25;2.25;;;;;;;;5288140;28;8820;-68
2022/06/18 13:16:42;;;;;;;;;2.00;2.00;;;;;;;;5235882;28;8786;-68
2022/06/18 13:19:38;;;;;;;;;2.00;2.00;;;;;;;;5269495;28;9492;-67
2022/06/18 13:22:27;;;;;;;;;0.50;0.50;;;;;;;;5275830;28;9576;-68
2022/06/18 13:28:12;;;;;;;;;2.00;2.00;;;;;;;;5280811;27;8791;-68
2022/06/18 13:30:43;;;;;;;;;1.00;1.00;;;;;;;;5274792;27;8779;-68
2022/06/18 13:33:25;;;;;;;;;0.00;0.00;;;;;;;;5294276;27;8768;-68
2022/06/18 13:36:07;;;;;;;;;3.50;3.50;;;;;;;;5312659;27;9520;-69
2022/06/18 13:38:38;;;;;;;;;1.75;1.75;;;;;;;;5260058;27;8914;-67
2022/06/18 13:41:12;;;;;;;;;25.00;25.00;;;;;;;;5310690;27;8898;-67
2022/06/18 13:43:49;;;;;;;;;9.25;9.25;;;;;;;;5260186;27;10200;-66
2022/06/18 13:46:27;;;;;;;;;2.00;2.00;;;;;;;;5260435;27;9490;-67
2022/06/18 13:49:29;;;;;;;;;1.75;1.75;;;;;;;;5296818;27;8774;-66
2022/06/18 13:52:01;;;;;;;;;0.75;0.75;;;;;;;;5291432;28;9456;-69
2022/06/18 13:54:52;;;;;;;;;0.25;0.25;;;;;;;;5259422;27;8803;-68
2022/06/18 13:57:23;;;;;;;;;0.00;0.00;;;;;;;;5305329;27;8920;-68
2022/06/18 14:00:00;;;;;;;;;2.75;2.75;;;;;;;;5265301;27;8750;-69
2022/06/18 14:02:40;;;;;;;;;2.00;2.00;;;;;;;;5290643;27;8833;-68
2022/06/18 14:05:15;;;;;;;;;1.00;1.00;;;;;;;;5253230;28;8822;-68
2022/06/18 14:07:48;;;;;;;;;0.50;0.50;;;;;;;;5250288;28;8794;-69
2022/06/18 14:10:22;;;;;;;;;0.75;0.75;;;;;;;;5271930;28;8792;-68
2022/06/18 14:12:54;;;;;;;;;0.00;0.00;;;;;;;;5272025;28;8773;-68
2022/06/18 14:15:27;;;;;;;;;6.75;6.75;;;;;;;;5289969;28;8762;-68
2022/06/18 14:17:59;;;;;;;;;2.00;2.00;;;;;;;;5289596;28;8806;-68
2022/06/18 14:20:32;;;;;;;;;0.00;0.00;;;;;;;;5288335;28;8758;-68
2022/06/18 14:23:24;;;;;;;;;0.50;0.50;;;;;;;;5289845;28;9514;-68
2022/06/18 14:25:55;;;;;;;;;0.00;0.00;;;;;;;;5254095;28;8769;-69
2022/06/18 14:28:30;;;;;;;;;1.00;1.00;;;;;;;;5288203;28;9488;-70
2022/06/18 14:31:03;;;;;;;;;0.00;0.00;;;;;;;;5271454;28;8780;-69
2022/06/18 14:33:39;;;;;;;;;0.00;0.00;;;;;;;;5289666;28;8770;-68
2022/06/18 14:36:13;;;;;;;;;0.75;0.75;;;;;;;;5255288;28;8796;-68
2022/06/18 14:38:45;;;;;;;;;0.00;0.00;;;;;;;;5271778;28;8821;-68
2022/06/18 14:41:35;;;;;;;;;0.50;0.50;;;;;;;;5306049;27;8784;-68
2022/06/18 14:44:37;;;;;;;;;0.00;0.00;;;;;;;;5290379;28;8762;-68
2022/06/18 14:47:08;;;;;;;;;2.00;2.00;;;;;;;;5290918;28;8872;-67
2022/06/18 14:49:49;;;;;;;;;1.33;1.33;;;;;;;;5270370;28;8899;-67
2022/06/18 14:52:46;;;;;;;;;1.00;1.00;;;;;;;;5235700;28;8775;-68
2022/06/18 14:55:35;;;;;;;;;2.50;2.50;;;;;;;;5285847;27;8846;-68
2022/06/18 14:58:26;;;;;;;;;3.25;3.25;;;;;;;;5291695;27;8816;-69
2022/06/18 15:01:00;;;;;;;;;2.00;2.00;;;;;;;;5273559;28;8810;-69
2022/06/18 15:03:47;;;;;;;;;0.50;0.50;;;;;;;;5287981;27;8783;-75
2022/06/18 15:06:18;;;;;;;;;1.00;1.00;;;;;;;;5270099;28;8791;-69
2022/06/18 15:08:55;;;;;;;;;4.00;4.00;;;;;;;;5288139;28;8818;-69
2022/06/18 15:11:27;;;;;;;;;2.75;2.75;;;;;;;;5285535;28;11381;-68
2022/06/18 15:13:59;;;;;;;;;3.50;3.50;;;;;;;;5268306;28;8797;-69
2022/06/18 15:17:26;;;;;;;;;2.50;2.50;;;;;;;;5268292;28;8798;-69
2022/06/18 15:19:32;;;;;;;;;2.00;2.00;;;;;;;;5278240;28;8906;-67
2022/06/18 15:23:01;;;;;;;;;0.00;0.00;;;;;;;;5274153;28;8793;-68
2022/06/18 15:25:25;;;;;;;;;2.00;2.00;;;;;;;;5285110;28;8769;-68
2022/06/18 15:27:58;;;;;;;;;3.00;3.00;;;;;;;;5289296;28;8854;-67
2022/06/18 15:30:32;;;;;;;;;3.00;3.00;;;;;;;;5237588;28;9495;-68
2022/06/18 15:33:15;;;;;;;;;1.50;1.50;;;;;;;;5289134;28;8766;-68
2022/06/18 15:35:47;;;;;;;;;2.00;2.00;;;;;;;;5251110;28;8787;-68
2022/06/18 15:38:24;;;;;;;;;3.50;3.50;;;;;;;;5238359;27;8870;-69
2022/06/18 15:41:09;;;;;;;;;5.25;5.25;;;;;;;;5254565;27;8776;-68
2022/06/18 15:43:46;;;;;;;;;6.00;6.00;;;;;;;;5257448;27;8779;-68
2022/06/18 15:46:20;;;;;;;;;8.50;8.50;;;;;;;;5258291;27;8774;-68
2022/06/18 15:49:20;;;;;;;;;10.00;9.00;;;;;;;;5256914;28;8810;-68
2022/06/18 15:51:51;;;;;;;;;2.75;2.75;;;;;;;;5275154;28;8770;-68
2022/06/18 15:54:24;;;;;;;;;11.75;11.75;;;;;;;;5288334;28;8837;-68
2022/06/18 15:56:59;;;;;;;;;5.50;5.50;;;;;;;;5288460;28;8778;-68
2022/06/18 15:59:30;;;;;;;;;7.50;7.50;;;;;;;;5270806;28;8791;-68
2022/06/18 16:02:02;;;;;;;;;9.50;9.50;;;;;;;;5287350;28;8799;-68
2022/06/18 16:04:51;;;;;;;;;9.50;9.50;;;;;;;;5287785;28;8795;-68
2022/06/18 16:07:23;;;;;;;;;5.00;5.00;;;;;;;;5288334;28;8809;-68
2022/06/18 16:09:56;;;;;;;;;5.00;5.00;;;;;;;;5253276;28;8834;-68
2022/06/18 16:12:37;;;;;;;;;6.50;6.50;;;;;;;;5288480;28;9489;-68
2022/06/18 16:15:26;;;;;;;;;5.00;5.00;;;;;;;;5289022;28;8762;-68
2022/06/18 16:17:58;;;;;;;;;7.75;7.75;;;;;;;;5253255;28;9595;-68